createdAt,value
2023-04-12T00:00:37.758Z,531.00
2023-04-12T00:01:37.955Z,533.00
2023-04-12T00:02:38.217Z,525.00
2023-04-12T00:03:38.139Z,526.00
2023-04-12T00:04:38.144Z,524.00
2023-04-12T00:05:38.043Z,531.00
2023-04-12T00:06:38.113Z,526.00
2023-04-12T00:07:38.168Z,531.00
2023-04-12T00:08:38.267Z,531.00
2023-04-12T00:09:38.334Z,530.00
2023-04-12T00:10:38.336Z,532.00
2023-04-12T00:11:38.389Z,534.00
2023-04-12T00:12:38.463Z,529.00
2023-04-12T00:13:38.530Z,532.00
2023-04-12T00:14:38.629Z,535.00
2023-04-12T00:15:38.661Z,532.00
2023-04-12T00:16:38.717Z,535.00
2023-04-12T00:17:38.799Z,531.00
2023-04-12T00:18:38.809Z,528.00
2023-04-12T00:19:38.898Z,531.00
2023-04-12T00:20:38.970Z,526.00
2023-04-12T00:21:38.993Z,534.00
2023-04-12T00:22:39.113Z,533.00
2023-04-12T00:23:39.142Z,535.00
2023-04-12T00:24:39.192Z,534.00
2023-04-12T00:25:39.276Z,524.00
2023-04-12T00:26:39.317Z,535.00
2023-04-12T00:27:39.372Z,532.00
2023-04-12T00:28:39.447Z,529.00
2023-04-12T00:29:39.513Z,530.00
2023-04-12T00:30:39.543Z,530.00
2023-04-12T00:31:39.666Z,527.00
2023-04-12T00:32:39.737Z,531.00
2023-04-12T00:33:39.741Z,530.00
2023-04-12T00:34:39.847Z,537.00
2023-04-12T00:35:39.848Z,534.00
2023-04-12T00:36:39.994Z,530.00
2023-04-12T00:37:40.045Z,538.00
2023-04-12T00:38:40.047Z,534.00
2023-04-12T00:39:40.131Z,535.00
2023-04-12T00:40:40.171Z,534.00
2023-04-12T00:41:40.246Z,537.00
2023-04-12T00:42:40.292Z,531.00
2023-04-12T00:43:40.374Z,532.00
2023-04-12T00:44:40.403Z,532.00
2023-04-12T00:45:40.523Z,532.00
2023-04-12T00:46:40.659Z,539.00
2023-04-12T00:47:40.634Z,537.00
2023-04-12T00:48:40.710Z,536.00
2023-04-12T00:49:40.734Z,532.00
2023-04-12T00:50:40.814Z,531.00
2023-04-12T00:51:40.846Z,535.00
2023-04-12T00:52:40.997Z,532.00
2023-04-12T00:53:40.965Z,535.00
2023-04-12T00:54:40.991Z,535.00
2023-04-12T00:55:41.052Z,533.00
2023-04-12T00:56:41.121Z,531.00
2023-04-12T00:57:41.180Z,531.00
2023-04-12T00:58:41.233Z,541.00
2023-04-12T00:59:41.276Z,534.00
2023-04-12T01:00:41.402Z,540.00
2023-04-12T01:01:41.584Z,536.00
2023-04-12T01:02:41.637Z,535.00
2023-04-12T01:03:41.648Z,533.00
2023-04-12T01:04:41.633Z,537.00
2023-04-12T01:05:41.705Z,532.00
2023-04-12T01:06:41.740Z,530.00
2023-04-12T01:07:41.854Z,534.00
2023-04-12T01:08:41.928Z,538.00
2023-04-12T01:09:41.898Z,533.00
2023-04-12T01:10:41.963Z,531.00
2023-04-12T01:11:42.001Z,536.00
2023-04-12T01:12:42.101Z,534.00
2023-04-12T01:13:42.165Z,537.00
2023-04-12T01:14:42.198Z,536.00
2023-04-12T01:15:42.284Z,534.00
2023-04-12T01:16:42.450Z,534.00
2023-04-12T01:17:42.470Z,534.00
2023-04-12T01:18:42.519Z,529.00
2023-04-12T01:19:42.541Z,535.00
2023-04-12T01:20:42.604Z,531.00
2023-04-12T01:21:42.612Z,531.00
2023-04-12T01:22:42.722Z,534.00
2023-04-12T01:23:42.767Z,535.00
2023-04-12T01:24:42.832Z,535.00
2023-04-12T01:25:42.985Z,537.00
2023-04-12T01:26:42.963Z,539.00
2023-04-12T01:27:43.004Z,534.00
2023-04-12T01:28:43.047Z,539.00
2023-04-12T01:29:43.093Z,537.00
2023-04-12T01:30:43.189Z,533.00
2023-04-12T01:31:43.336Z,539.00
2023-04-12T01:32:43.314Z,535.00
2023-04-12T01:33:43.370Z,533.00
2023-04-12T01:34:43.463Z,536.00
2023-04-12T01:35:43.539Z,534.00
2023-04-12T01:36:43.567Z,530.00
2023-04-12T01:37:43.586Z,537.00
2023-04-12T01:38:43.679Z,537.00
2023-04-12T01:39:43.721Z,543.00
2023-04-12T01:40:43.770Z,539.00
2023-04-12T01:41:43.826Z,536.00
2023-04-12T01:42:43.835Z,538.00
2023-04-12T01:43:43.904Z,540.00
2023-04-12T01:44:43.936Z,537.00
2023-04-12T01:45:44.130Z,531.00
2023-04-12T01:46:44.081Z,535.00
2023-04-12T01:47:44.144Z,535.00
2023-04-12T01:48:44.184Z,537.00
2023-04-12T01:49:44.223Z,540.00
2023-04-12T01:50:44.282Z,542.00
2023-04-12T01:51:44.354Z,533.00
2023-04-12T01:52:44.331Z,535.00
2023-04-12T01:53:44.416Z,537.00
2023-04-12T01:54:44.425Z,541.00
2023-04-12T01:55:44.487Z,540.00
2023-04-12T01:56:44.505Z,536.00
2023-04-12T01:57:44.547Z,534.00
2023-04-12T01:58:44.612Z,542.00
2023-04-12T01:59:44.659Z,533.00
2023-04-12T02:00:44.782Z,539.00
2023-04-12T02:01:44.865Z,536.00
2023-04-12T02:02:45.028Z,538.00
2023-04-12T02:03:44.989Z,538.00
2023-04-12T02:04:45.522Z,541.00
2023-04-12T02:05:45.019Z,536.00
2023-04-12T02:06:45.139Z,538.00
2023-04-12T02:07:45.125Z,537.00
2023-04-12T02:08:45.189Z,533.00
2023-04-12T02:09:45.248Z,542.00
2023-04-12T02:10:45.250Z,538.00
2023-04-12T02:11:45.275Z,539.00
2023-04-12T02:12:45.366Z,540.00
2023-04-12T02:13:45.462Z,535.00
2023-04-12T02:14:45.438Z,536.00
2023-04-12T02:15:45.541Z,541.00
2023-04-12T02:16:45.493Z,538.00
2023-04-12T02:17:45.649Z,536.00
2023-04-12T02:18:45.612Z,535.00
2023-04-12T02:19:45.712Z,536.00
2023-04-12T02:20:45.688Z,539.00
2023-04-12T02:21:45.739Z,541.00
2023-04-12T02:22:45.735Z,542.00
2023-04-12T02:23:45.733Z,537.00
2023-04-12T02:24:45.887Z,536.00
2023-04-12T02:25:45.852Z,539.00
2023-04-12T02:26:45.868Z,538.00
2023-04-12T02:27:45.940Z,538.00
2023-04-12T02:28:45.973Z,539.00
2023-04-12T02:29:45.996Z,544.00
2023-04-12T02:30:46.136Z,532.00
2023-04-12T02:31:46.151Z,534.00
2023-04-12T02:32:46.203Z,533.00
2023-04-12T02:33:46.227Z,540.00
2023-04-12T02:34:46.331Z,533.00
2023-04-12T02:35:46.266Z,543.00
2023-04-12T02:36:46.333Z,542.00
2023-04-12T02:37:46.349Z,544.00
2023-04-12T02:38:46.435Z,538.00
2023-04-12T02:39:46.460Z,537.00
2023-04-12T02:40:46.537Z,543.00
2023-04-12T02:41:46.539Z,539.00
2023-04-12T02:42:46.601Z,536.00
2023-04-12T02:43:46.595Z,535.00
2023-04-12T02:44:46.707Z,547.00
2023-04-12T02:45:46.729Z,543.00
2023-04-12T02:46:46.801Z,537.00
2023-04-12T02:47:46.797Z,538.00
2023-04-12T02:48:46.849Z,536.00
2023-04-12T02:49:46.852Z,543.00
2023-04-12T02:50:46.883Z,540.00
2023-04-12T02:51:47.468Z,540.00
2023-04-12T02:52:46.947Z,537.00
2023-04-12T02:53:46.973Z,540.00
2023-04-12T02:54:47.027Z,538.00
2023-04-12T02:55:47.088Z,537.00
2023-04-12T02:56:47.543Z,538.00
2023-04-12T02:57:47.095Z,537.00
2023-04-12T02:58:47.098Z,542.00
2023-04-12T02:59:47.175Z,541.00
2023-04-12T03:00:47.178Z,535.00
2023-04-12T03:01:47.331Z,542.00
2023-04-12T03:02:47.386Z,540.00
2023-04-12T03:03:47.350Z,540.00
2023-04-12T03:04:47.385Z,539.00
2023-04-12T03:05:47.369Z,542.00
2023-04-12T03:06:47.367Z,537.00
2023-04-12T03:07:47.367Z,547.00
2023-04-12T03:08:47.444Z,541.00
2023-04-12T03:09:47.486Z,537.00
2023-04-12T03:10:47.595Z,543.00
2023-04-12T03:11:47.506Z,537.00
2023-04-12T03:12:47.581Z,542.00
2023-04-12T03:13:47.679Z,543.00
2023-04-12T03:14:47.626Z,536.00
2023-04-12T03:15:47.727Z,533.00
2023-04-12T03:16:47.738Z,542.00
2023-04-12T03:17:47.880Z,545.00
2023-04-12T03:18:47.807Z,537.00
2023-04-12T03:19:47.964Z,544.00
2023-04-12T03:20:47.966Z,542.00
2023-04-12T03:21:47.935Z,536.00
2023-04-12T03:22:48.021Z,545.00
2023-04-12T03:23:47.989Z,542.00
2023-04-12T03:24:48.073Z,536.00
2023-04-12T03:25:48.124Z,545.00
2023-04-12T03:26:48.128Z,544.00
2023-04-12T03:27:48.171Z,540.00
2023-04-12T03:28:48.221Z,539.00
2023-04-12T03:29:48.241Z,543.00
2023-04-12T03:30:48.356Z,544.00
2023-04-12T03:31:48.386Z,547.00
2023-04-12T03:32:48.497Z,542.00
2023-04-12T03:33:48.436Z,537.00
2023-04-12T03:34:48.451Z,541.00
2023-04-12T03:35:48.557Z,539.00
2023-04-12T03:36:48.610Z,541.00
2023-04-12T03:37:48.612Z,537.00
2023-04-12T03:38:48.550Z,545.00
2023-04-12T03:39:48.717Z,545.00
2023-04-12T03:40:48.700Z,540.00
2023-04-12T03:41:48.640Z,542.00
2023-04-12T03:42:48.730Z,539.00
2023-04-12T03:43:48.691Z,546.00
2023-04-12T03:44:48.669Z,542.00
2023-04-12T03:45:48.759Z,545.00
2023-04-12T03:46:48.716Z,541.00
2023-04-12T03:47:48.856Z,549.00
2023-04-12T03:48:48.770Z,541.00
2023-04-12T03:50:01.753Z,541.00
2023-04-12T03:50:49.883Z,541.00
2023-04-12T03:51:48.698Z,542.00
2023-04-12T03:52:48.692Z,541.00
2023-04-12T03:53:48.701Z,544.00
2023-04-12T03:54:48.719Z,536.00
2023-04-12T03:55:48.724Z,549.00
2023-04-12T03:56:48.730Z,545.00
2023-04-12T03:57:48.690Z,546.00
2023-04-12T03:58:48.638Z,540.00
2023-04-12T03:59:48.637Z,537.00
2023-04-12T04:00:48.650Z,541.00
2023-04-12T04:01:48.752Z,543.00
2023-04-12T04:02:48.698Z,543.00
2023-04-12T04:03:48.742Z,540.00
2023-04-12T04:04:48.866Z,542.00
2023-04-12T04:05:48.642Z,540.00
2023-04-12T04:06:48.816Z,545.00
2023-04-12T04:07:48.660Z,545.00
2023-04-12T04:08:48.626Z,542.00
2023-04-12T04:09:48.617Z,543.00
2023-04-12T04:10:48.623Z,538.00
2023-04-12T04:11:48.720Z,532.00
2023-04-12T04:12:48.589Z,526.00
2023-04-12T04:13:48.555Z,530.00
2023-04-12T04:14:48.555Z,531.00
2023-04-12T04:15:48.546Z,527.00
2023-04-12T04:16:48.722Z,535.00
2023-04-12T04:17:48.628Z,541.00
2023-04-12T04:18:48.540Z,528.00
2023-04-12T04:19:49.502Z,530.00
2023-04-12T04:20:48.550Z,540.00
2023-04-12T04:21:48.486Z,537.00
2023-04-12T04:22:48.593Z,526.00
2023-04-12T04:23:48.617Z,530.00
2023-04-12T04:24:48.609Z,532.00
2023-04-12T04:25:48.582Z,529.00
2023-04-12T04:26:48.631Z,535.00
2023-04-12T04:27:48.553Z,536.00
2023-04-12T04:28:48.735Z,535.00
2023-04-12T04:29:48.650Z,526.00
2023-04-12T04:30:48.665Z,529.00
2023-04-12T04:31:48.813Z,531.00
2023-04-12T04:32:48.749Z,532.00
2023-04-12T04:33:48.850Z,525.00
2023-04-12T04:34:48.789Z,522.00
2023-04-12T04:35:48.801Z,528.00
2023-04-12T04:36:48.929Z,522.00
2023-04-12T04:37:48.824Z,534.00
2023-04-12T04:38:48.823Z,527.00
2023-04-12T04:39:48.937Z,525.00
2023-04-12T04:40:48.887Z,523.00
2023-04-12T04:41:48.930Z,521.00
2023-04-12T04:42:48.949Z,526.00
2023-04-12T04:43:48.846Z,526.00
2023-04-12T04:44:48.953Z,524.00
2023-04-12T04:45:48.902Z,526.00
2023-04-12T04:46:48.872Z,520.00
2023-04-12T04:47:48.955Z,523.00
2023-04-12T04:48:48.973Z,520.00
2023-04-12T04:49:48.893Z,531.00
2023-04-12T04:50:48.861Z,525.00
2023-04-12T04:51:48.908Z,528.00
2023-04-12T04:52:49.014Z,524.00
2023-04-12T04:53:48.915Z,528.00
2023-04-12T04:54:49.037Z,523.00
2023-04-12T04:55:48.975Z,529.00
2023-04-12T04:56:49.020Z,528.00
2023-04-12T04:57:48.998Z,530.00
2023-04-12T04:58:49.006Z,527.00
2023-04-12T04:59:49.022Z,523.00
2023-04-12T05:00:49.118Z,524.00
2023-04-12T05:01:49.241Z,526.00
2023-04-12T05:02:49.209Z,522.00
2023-04-12T05:03:49.204Z,528.00
2023-04-12T05:04:49.072Z,519.00
2023-04-12T05:05:49.195Z,525.00
2023-04-12T05:06:49.095Z,520.00
2023-04-12T05:07:49.210Z,517.00
2023-04-12T05:08:49.182Z,517.00
2023-04-12T05:09:49.185Z,523.00
2023-04-12T05:10:49.241Z,520.00
2023-04-12T05:11:49.236Z,522.00
2023-04-12T05:12:49.277Z,520.00
2023-04-12T05:13:49.343Z,518.00
2023-04-12T05:14:51.635Z,515.00
2023-04-12T05:15:49.343Z,521.00
2023-04-12T05:16:49.399Z,520.00
2023-04-12T05:17:49.308Z,514.00
2023-04-12T05:18:49.299Z,519.00
2023-04-12T05:19:49.397Z,522.00
2023-04-12T05:20:49.298Z,516.00
2023-04-12T05:21:49.302Z,516.00
2023-04-12T05:22:49.304Z,514.00
2023-04-12T05:23:49.313Z,510.00
2023-04-12T05:24:49.331Z,515.00
2023-04-12T05:25:49.333Z,512.00
2023-04-12T05:26:49.248Z,511.00
2023-04-12T05:27:52.008Z,514.00
2023-04-12T05:28:49.284Z,514.00
2023-04-12T05:29:49.206Z,514.00
2023-04-12T05:30:49.285Z,513.00
2023-04-12T05:31:49.279Z,514.00
2023-04-12T05:32:49.355Z,517.00
2023-04-12T05:33:49.222Z,507.00
2023-04-12T05:34:49.201Z,497.00
2023-04-12T05:35:49.339Z,497.00
2023-04-12T05:36:49.718Z,505.00
2023-04-12T05:37:49.142Z,510.00
2023-04-12T05:38:49.235Z,519.00
2023-04-12T05:39:49.209Z,507.00
2023-04-12T05:40:49.119Z,501.00
2023-04-12T05:41:49.126Z,499.00
2023-04-12T05:42:49.155Z,500.00
2023-04-12T05:43:49.261Z,504.00
2023-04-12T05:44:49.884Z,503.00
2023-04-12T05:45:49.213Z,502.00
2023-04-12T05:46:49.188Z,502.00
2023-04-12T05:47:49.237Z,501.00
2023-04-12T05:48:49.076Z,504.00
2023-04-12T05:49:49.132Z,505.00
2023-04-12T05:50:49.102Z,507.00
2023-04-12T05:51:49.621Z,506.00
2023-04-12T05:52:49.042Z,515.00
2023-04-12T05:53:49.120Z,530.00
2023-04-12T05:54:49.016Z,543.00
2023-04-12T05:55:49.023Z,556.00
2023-04-12T05:56:49.090Z,571.00
2023-04-12T05:57:49.040Z,579.00
2023-04-12T05:58:49.058Z,585.00
2023-04-12T05:59:49.516Z,592.00
2023-04-12T06:00:49.069Z,591.00
2023-04-12T06:01:49.086Z,606.00
2023-04-12T06:02:49.090Z,618.00
2023-04-12T06:03:49.165Z,612.00
2023-04-12T06:04:50.864Z,609.00
2023-04-12T06:05:49.214Z,630.00
2023-04-12T06:06:49.139Z,631.00
2023-04-12T06:07:49.579Z,631.00
2023-04-12T06:08:49.320Z,650.00
2023-04-12T06:09:49.137Z,650.00
2023-04-12T06:10:49.252Z,656.00
2023-04-12T06:11:49.259Z,676.00
2023-04-12T06:12:49.360Z,691.00
2023-04-12T06:13:49.227Z,689.00
2023-04-12T06:14:49.295Z,729.00
2023-04-12T06:15:49.429Z,741.00
2023-04-12T06:16:49.419Z,757.00
2023-04-12T06:17:49.554Z,759.00
2023-04-12T06:18:49.579Z,771.00
2023-04-12T06:19:49.606Z,784.00
2023-04-12T06:20:49.705Z,773.00
2023-04-12T06:21:49.687Z,784.00
2023-04-12T06:22:49.742Z,795.00
2023-04-12T06:23:56.534Z,825.00
2023-04-12T06:24:50.048Z,828.00
2023-04-12T06:25:49.782Z,833.00
2023-04-12T06:26:49.795Z,841.00
2023-04-12T06:27:49.862Z,856.00
2023-04-12T06:28:49.778Z,894.00
2023-04-12T06:29:50.016Z,905.00
2023-04-12T06:30:49.704Z,893.00
2023-04-12T06:31:49.826Z,903.00
2023-04-12T06:32:49.748Z,923.00
2023-04-12T06:33:49.806Z,906.00
2023-04-12T06:34:49.808Z,905.00
2023-04-12T06:35:50.553Z,879.00
2023-04-12T06:36:49.722Z,897.00
2023-04-12T06:37:49.744Z,823.00
2023-04-12T06:38:49.730Z,770.00
2023-04-12T06:39:50.060Z,747.00
2023-04-12T06:40:49.675Z,773.00
2023-04-12T06:41:49.849Z,676.00
2023-04-12T06:42:49.750Z,651.00
2023-04-12T06:43:49.644Z,639.00
2023-04-12T06:44:49.713Z,642.00
2023-04-12T06:45:49.723Z,648.00
2023-04-12T06:46:49.751Z,658.00
2023-04-12T06:47:49.653Z,687.00
2023-04-12T06:48:49.621Z,699.00
2023-04-12T06:49:49.705Z,706.00
2023-04-12T06:50:49.611Z,704.00
2023-04-12T06:51:49.605Z,723.00
2023-04-12T06:52:49.621Z,714.00
2023-04-12T06:53:49.636Z,738.00
2023-04-12T06:54:49.639Z,755.00
2023-04-12T06:55:49.567Z,745.00
2023-04-12T06:56:49.593Z,756.00
2023-04-12T06:57:49.671Z,771.00
2023-04-12T06:58:49.865Z,766.00
2023-04-12T06:59:49.563Z,786.00
2023-04-12T07:00:50.164Z,789.00
2023-04-12T07:01:49.837Z,775.00
2023-04-12T07:02:49.905Z,683.00
2023-04-12T07:03:49.978Z,655.00
2023-04-12T07:04:49.899Z,665.00
2023-04-12T07:05:49.938Z,638.00
2023-04-12T07:06:49.956Z,663.00
2023-04-12T07:07:50.039Z,663.00
2023-04-12T07:08:50.078Z,682.00
2023-04-12T07:09:50.141Z,733.00
2023-04-12T07:10:50.204Z,722.00
2023-04-12T07:11:50.253Z,738.00
2023-04-12T07:12:50.304Z,736.00
2023-04-12T07:13:50.411Z,746.00
2023-04-12T07:14:50.406Z,754.00
2023-04-12T07:15:50.494Z,781.00
2023-04-12T07:16:50.553Z,782.00
2023-04-12T07:17:50.698Z,799.00
2023-04-12T07:18:50.783Z,806.00
2023-04-12T07:19:51.064Z,808.00
2023-04-12T07:20:50.780Z,822.00
2023-04-12T07:21:50.861Z,834.00
2023-04-12T07:22:50.849Z,832.00
2023-04-12T07:23:50.882Z,845.00
2023-04-12T07:24:51.081Z,851.00
2023-04-12T07:25:50.988Z,874.00
2023-04-12T07:26:51.013Z,878.00
2023-04-12T07:27:51.957Z,870.00
2023-04-12T07:28:51.134Z,920.00
2023-04-12T07:29:51.148Z,917.00
2023-04-12T07:30:51.212Z,944.00
2023-04-12T07:31:51.284Z,789.00
2023-04-12T07:32:51.312Z,656.00
2023-04-12T07:33:51.402Z,621.00
2023-04-12T07:34:51.319Z,620.00
2023-04-12T07:35:51.371Z,634.00
2023-04-12T07:36:51.362Z,667.00
2023-04-12T07:37:51.379Z,718.00
2023-04-12T07:38:51.584Z,730.00
2023-04-12T07:39:51.550Z,775.00
2023-04-12T07:40:51.490Z,794.00
2023-04-12T07:41:51.526Z,791.00
2023-04-12T07:42:51.514Z,818.00
2023-04-12T07:43:51.550Z,789.00
2023-04-12T07:44:51.607Z,794.00
2023-04-12T07:45:51.585Z,800.00
2023-04-12T07:46:51.635Z,815.00
2023-04-12T07:47:51.677Z,820.00
2023-04-12T07:48:51.731Z,843.00
2023-04-12T07:49:51.757Z,867.00
2023-04-12T07:50:51.797Z,873.00
2023-04-12T07:51:51.868Z,889.00
2023-04-12T07:52:51.906Z,921.00
2023-04-12T07:53:51.994Z,943.00
2023-04-12T07:54:52.209Z,950.00
2023-04-12T07:55:52.327Z,942.00
2023-04-12T07:56:52.210Z,979.00
2023-04-12T07:57:52.257Z,989.00
2023-04-12T07:58:52.330Z,1010.00
2023-04-12T07:59:52.351Z,1034.00
2023-04-12T08:00:52.437Z,1031.00
2023-04-12T08:01:52.553Z,1015.00
2023-04-12T08:02:52.630Z,1031.00
2023-04-12T08:03:52.659Z,1069.00
2023-04-12T08:04:52.513Z,1084.00
2023-04-12T08:05:52.507Z,1084.00
2023-04-12T08:06:52.526Z,1104.00
2023-04-12T08:07:52.720Z,1134.00
2023-04-12T08:08:52.646Z,1148.00
2023-04-12T08:09:52.639Z,1153.00
2023-04-12T08:10:52.720Z,1173.00
2023-04-12T08:11:52.764Z,1163.00
2023-04-12T08:12:52.832Z,1168.00
2023-04-12T08:13:52.852Z,1186.00
2023-04-12T08:14:52.849Z,1206.00
2023-04-12T08:15:52.877Z,1205.00
2023-04-12T08:16:52.857Z,1215.00
2023-04-12T08:17:52.920Z,1225.00
2023-04-12T08:18:52.917Z,1238.00
2023-04-12T08:19:53.118Z,1239.00
2023-04-12T08:20:52.989Z,1269.00
2023-04-12T08:21:53.128Z,1259.00
2023-04-12T08:22:53.289Z,1280.00
2023-04-12T08:23:53.453Z,1271.00
2023-04-12T08:24:53.533Z,1290.00
2023-04-12T08:25:54.149Z,1302.00
2023-04-12T08:26:53.646Z,1332.00
2023-04-12T08:27:53.647Z,1321.00
2023-04-12T08:28:53.759Z,1307.00
2023-04-12T08:29:53.663Z,1327.00
2023-04-12T08:30:53.709Z,1336.00
2023-04-12T08:31:53.726Z,1329.00
2023-04-12T08:32:53.896Z,1313.00
2023-04-12T08:33:53.890Z,1315.00
2023-04-12T08:34:53.918Z,1303.00
2023-04-12T08:35:54.209Z,1322.00
2023-04-12T08:36:53.940Z,1317.00
2023-04-12T08:37:54.016Z,1310.00
2023-04-12T08:38:55.075Z,1303.00
2023-04-12T08:39:54.080Z,1294.00
2023-04-12T08:40:54.155Z,1305.00
2023-04-12T08:41:54.086Z,1290.00
2023-04-12T08:42:54.185Z,1298.00
2023-04-12T08:43:54.165Z,1276.00
2023-04-12T08:44:54.326Z,1193.00
2023-04-12T08:45:54.371Z,1171.00
2023-04-12T08:46:54.418Z,1156.00
2023-04-12T08:47:54.447Z,1142.00
2023-04-12T08:48:54.340Z,1166.00
2023-04-12T08:49:54.418Z,1184.00
2023-04-12T08:50:54.437Z,1175.00
2023-04-12T08:51:54.630Z,1169.00
2023-04-12T08:52:54.429Z,1187.00
2023-04-12T08:53:54.434Z,1093.00
2023-04-12T08:54:54.445Z,1029.00
2023-04-12T08:55:54.501Z,1042.00
2023-04-12T08:56:54.512Z,958.00
2023-04-12T08:57:54.574Z,759.00
2023-04-12T08:58:54.584Z,643.00
2023-04-12T08:59:54.622Z,619.00
2023-04-12T09:00:54.690Z,610.00
2023-04-12T09:01:54.957Z,624.00
2023-04-12T09:02:55.028Z,643.00
2023-04-12T09:03:56.694Z,685.00
2023-04-12T09:04:54.905Z,706.00
2023-04-12T09:05:54.939Z,793.00
2023-04-12T09:06:55.055Z,784.00
2023-04-12T09:07:55.063Z,794.00
2023-04-12T09:08:55.142Z,812.00
2023-04-12T09:09:55.172Z,776.00
2023-04-12T09:10:55.179Z,800.00
2023-04-12T09:11:55.278Z,783.00
2023-04-12T09:12:55.285Z,773.00
2023-04-12T09:13:55.375Z,758.00
2023-04-12T09:14:55.412Z,786.00
2023-04-12T09:15:55.534Z,767.00
2023-04-12T09:16:55.474Z,795.00
2023-04-12T09:17:55.619Z,805.00
2023-04-12T09:18:55.696Z,806.00
2023-04-12T09:19:55.549Z,801.00
2023-04-12T09:20:55.519Z,814.00
2023-04-12T09:21:55.592Z,798.00
2023-04-12T09:22:55.642Z,818.00
2023-04-12T09:23:55.882Z,800.00
2023-04-12T09:24:55.657Z,811.00
2023-04-12T09:25:55.690Z,802.00
2023-04-12T09:26:55.706Z,820.00
2023-04-12T09:27:55.757Z,812.00
2023-04-12T09:28:55.803Z,811.00
2023-04-12T09:29:55.822Z,827.00
2023-04-12T09:30:55.832Z,803.00
2023-04-12T09:31:55.993Z,812.00
2023-04-12T09:32:55.990Z,770.00
2023-04-12T09:33:56.098Z,562.00
2023-04-12T09:34:55.956Z,497.00
2023-04-12T09:35:55.989Z,512.00
2023-04-12T09:36:56.062Z,522.00
2023-04-12T09:37:55.885Z,543.00
2023-04-12T09:38:55.933Z,544.00
2023-04-12T09:39:56.053Z,552.00
2023-04-12T09:40:55.938Z,551.00
2023-04-12T09:41:55.940Z,554.00
2023-04-12T09:42:56.011Z,557.00
2023-04-12T09:43:56.336Z,555.00
2023-04-12T09:44:56.146Z,542.00
2023-04-12T09:45:56.169Z,553.00
2023-04-12T09:46:56.313Z,550.00
2023-04-12T09:47:56.386Z,545.00
2023-04-12T09:48:56.584Z,536.00
2023-04-12T09:49:56.375Z,532.00
2023-04-12T09:50:56.431Z,533.00
2023-04-12T09:51:58.901Z,523.00
2023-04-12T09:52:56.469Z,511.00
2023-04-12T09:53:56.579Z,504.00
2023-04-12T09:54:56.458Z,512.00
2023-04-12T09:55:56.509Z,515.00
2023-04-12T09:56:56.446Z,527.00
2023-04-12T09:57:56.491Z,522.00
2023-04-12T09:58:56.596Z,534.00
2023-04-12T09:59:56.411Z,536.00
2023-04-12T10:00:56.435Z,546.00
2023-04-12T10:01:56.486Z,570.00
2023-04-12T10:02:56.915Z,551.00
2023-04-12T10:03:56.856Z,540.00
2023-04-12T10:04:56.645Z,549.00
2023-04-12T10:05:56.463Z,544.00
2023-04-12T10:06:56.367Z,533.00
2023-04-12T10:07:56.378Z,534.00
2023-04-12T10:08:56.540Z,525.00
2023-04-12T10:09:56.412Z,512.00
2023-04-12T10:10:56.395Z,500.00
2023-04-12T10:11:56.345Z,521.00
2023-04-12T10:12:56.357Z,506.00
2023-04-12T10:13:56.695Z,522.00
2023-04-12T10:14:56.366Z,528.00
2023-04-12T10:15:56.392Z,522.00
2023-04-12T10:16:56.434Z,553.00
2023-04-12T10:17:56.305Z,557.00
2023-04-12T10:18:56.514Z,541.00
2023-04-12T10:19:56.269Z,553.00
2023-04-12T10:20:56.308Z,555.00
2023-04-12T10:21:56.299Z,557.00
2023-04-12T10:22:56.285Z,564.00
2023-04-12T10:23:56.329Z,572.00
2023-04-12T10:24:56.286Z,564.00
2023-04-12T10:25:56.282Z,565.00
2023-04-12T10:26:56.297Z,571.00
2023-04-12T10:27:56.369Z,571.00
2023-04-12T10:28:58.933Z,580.00
2023-04-12T10:29:56.371Z,533.00
2023-04-12T10:30:56.369Z,542.00
2023-04-12T10:31:56.445Z,505.00
2023-04-12T10:32:56.420Z,459.00
2023-04-12T10:33:56.426Z,400.00
2023-04-12T10:34:56.452Z,400.00
2023-04-12T10:35:56.531Z,400.00
2023-04-12T10:36:56.382Z,507.00
2023-04-12T10:37:56.368Z,533.00
2023-04-12T10:38:56.505Z,589.00
2023-04-12T10:39:56.330Z,598.00
2023-04-12T10:40:56.299Z,612.00
2023-04-12T10:41:56.276Z,637.00
2023-04-12T10:42:56.301Z,632.00
2023-04-12T10:43:56.344Z,645.00
2023-04-12T10:44:57.493Z,658.00
2023-04-12T10:45:56.274Z,660.00
2023-04-12T10:46:56.303Z,664.00
2023-04-12T10:47:56.294Z,690.00
2023-04-12T10:48:56.427Z,733.00
2023-04-12T10:49:56.264Z,815.00
2023-04-12T10:50:56.234Z,827.00
2023-04-12T10:51:56.307Z,885.00
2023-04-12T10:52:56.204Z,863.00
2023-04-12T10:53:56.297Z,897.00
2023-04-12T10:54:56.256Z,878.00
2023-04-12T10:55:56.211Z,894.00
2023-04-12T10:56:56.355Z,952.00
2023-04-12T10:57:56.720Z,963.00
2023-04-12T10:58:56.297Z,919.00
2023-04-12T10:59:57.299Z,995.00
2023-04-12T11:00:56.221Z,979.00
2023-04-12T11:01:56.322Z,1027.00
2023-04-12T11:02:56.388Z,1017.00
2023-04-12T11:03:56.368Z,1041.00
2023-04-12T11:04:56.307Z,934.00
2023-04-12T11:05:56.100Z,886.00
2023-04-12T11:06:58.538Z,838.00
2023-04-12T11:07:56.156Z,839.00
2023-04-12T11:08:56.591Z,847.00
2023-04-12T11:09:56.244Z,875.00
2023-04-12T11:10:56.162Z,923.00
2023-04-12T11:11:56.125Z,922.00
2023-04-12T11:12:56.109Z,949.00
2023-04-12T11:13:56.145Z,954.00
2023-04-12T11:14:56.156Z,966.00
2023-04-12T11:15:56.027Z,930.00
2023-04-12T11:16:56.108Z,993.00
2023-04-12T11:17:56.250Z,992.00
2023-04-12T11:18:56.286Z,990.00
2023-04-12T11:19:56.117Z,954.00
2023-04-12T11:20:56.018Z,914.00
2023-04-12T11:21:56.054Z,1014.00
2023-04-12T11:22:56.070Z,1026.00
2023-04-12T11:23:55.999Z,1087.00
2023-04-12T11:24:56.074Z,1035.00
2023-04-12T11:25:56.340Z,1044.00
2023-04-12T11:26:56.037Z,1044.00
2023-04-12T11:27:56.006Z,1083.00
2023-04-12T11:28:56.232Z,1134.00
2023-04-12T11:29:55.944Z,1130.00
2023-04-12T11:30:56.015Z,1143.00
2023-04-12T11:31:56.069Z,1140.00
2023-04-12T11:32:55.996Z,1151.00
2023-04-12T11:33:55.960Z,1157.00
2023-04-12T11:34:55.945Z,1183.00
2023-04-12T11:35:55.955Z,1170.00
2023-04-12T11:36:55.953Z,1190.00
2023-04-12T11:37:55.966Z,1191.00
2023-04-12T11:38:56.264Z,1176.00
2023-04-12T11:39:55.894Z,1165.00
2023-04-12T11:40:55.928Z,1156.00
2023-04-12T11:41:55.907Z,1147.00
2023-04-12T11:42:55.902Z,1177.00
2023-04-12T11:43:55.954Z,1175.00
2023-04-12T11:44:59.782Z,1154.00
2023-04-12T11:45:56.939Z,1156.00
2023-04-12T11:46:55.925Z,1156.00
2023-04-12T11:47:56.008Z,1166.00
2023-04-12T11:48:55.982Z,1157.00
2023-04-12T11:49:55.823Z,1157.00
2023-04-12T11:51:07.634Z,1169.00
2023-04-12T11:51:56.881Z,1170.00
2023-04-12T11:52:55.886Z,1164.00
2023-04-12T11:53:56.075Z,1181.00
2023-04-12T11:54:55.819Z,1197.00
2023-04-12T11:55:55.862Z,1214.00
2023-04-12T11:56:55.834Z,1225.00
2023-04-12T11:57:55.822Z,1233.00
2023-04-12T11:58:56.219Z,1230.00
2023-04-12T11:59:55.818Z,1223.00
2023-04-12T12:00:55.809Z,1212.00
2023-04-12T12:01:55.839Z,1222.00
2023-04-12T12:03:06.838Z,1219.00
2023-04-12T12:03:57.061Z,1219.00
2023-04-12T12:04:56.173Z,1222.00
2023-04-12T12:05:55.825Z,1223.00
2023-04-12T12:06:55.975Z,1213.00
2023-04-12T12:07:55.785Z,1235.00
2023-04-12T12:08:55.792Z,1232.00
2023-04-12T12:09:56.695Z,1195.00
2023-04-12T12:11:06.358Z,1200.00
2023-04-12T12:11:56.760Z,1201.00
2023-04-12T12:12:55.682Z,1203.00
2023-04-12T12:13:55.760Z,1185.00
2023-04-12T12:14:55.728Z,1205.00
2023-04-12T12:15:55.661Z,1187.00
2023-04-12T12:16:55.731Z,1206.00
2023-04-12T12:17:55.756Z,1196.00
2023-04-12T12:18:55.740Z,1184.00
2023-04-12T12:19:55.741Z,1187.00
2023-04-12T12:20:55.710Z,1169.00
2023-04-12T12:21:55.661Z,1175.00
2023-04-12T12:22:55.661Z,1179.00
2023-04-12T12:23:56.106Z,1170.00
2023-04-12T12:24:55.759Z,1176.00